LiveATC.Net - Listen to live air traffic control over the Internet!


ICAO: YBOK  IATA: OKY   Airport: Oakey Airport
City: Oakey   State/Province: Queensland
Country: Australia   Continent: Oceania
YBBN METAR Weather: YBBN 290700Z 04006KT CAVOK 18/10 Q1019 NOSIG
YBOK Flight Activity (FlightAware)
YBOK Del/Gnd/Twr/App
Feed Status: UP   Listeners: 0
Listen right in your browser - requires Flash (in browser, requires Flash)
Click here to listen with your own player (launches your MP3 player)
YBOK Del/Gnd/Twr/App Audio Archives
FacilityFrequency
Brisbane Center/FSS121.200
Oakey Approach123.700
Oakey Approach125.400
Oakey Approach (Final)135.850
Oakey Clearance Delivery133.350
Oakey CTAF (+YTWB/YBWW)127.650
Oakey Ground121.900
Oakey Tower120.100


NOTICE

Unauthorized use prohibited. See LiveATC.net Terms of Service


Find LiveATC Audio Streams


Airport/ARTCC Code

Frequency
(e.g., 124.400, 128.75)
Site-wide search

Browse LiveATC Feeds
LiveATC Coverage Map
Top 50 LiveATC Feeds
Bad Weather Areas

LiveATC FAQ
Offer a LiveATC Feed
Contact LiveATC.net
Press Inquiries

LiveATC on iPhone
LiveATC on Android

Windows Phone
Windows 8/10

LiveATC Mobile
(Mobile browser)

ATC Audio Archives
Interesting Recordings

LiveATC Forums


Home Page
About LiveATC.net
Make a Donation
LiveATC Store

Terms of Use
Privacy Policy

Canadian Air Freqs

AIRMETs/SIGMETs

FAA Airport Status
Nat'l Airspace Status
Arrival Demand Charts


Server Software By:
Icecast.org
Liquidsoap